Metar Cercanos

 

LEPA - Palma De Mallorc, Spain
Distance from station: ONO 38km
Actualización: Tue, 07-Feb-2023 7:30pm CET
Muy nuboso
Muy nuboso
 Viento del NE
Viento: NE 13 km/h
Temperatura: 11°C
Rocío: 9°C
Humedad: 88%
Barómetro: 1021 hPa
Clouds: Muy nuboso
Visibility: 10 km
Cloud details: Few Clouds 549 m
Muy nuboso 1829 m
2023/02/07 18:30 LEPA 071830Z 05007KT 9999 FEW018 BKN060 11/09 Q1021 NOSIG
LEMH - Mahon/Menorca Is, Spain
Distance from station: ENE 105km
Actualización: Tue, 07-Feb-2023 7:30pm CET
Muy nuboso
Muy nuboso
 Viento del ESE
Viento: ESE 39 km/h
Temperatura: 11°C
Rocío: 8°C
Humedad: 82%
Barómetro: 1023 hPa
Clouds: Muy nuboso
Visibility: 10 km
Cloud details: Few Clouds 366 m
Muy nuboso 610 m
2023/02/07 18:30 LEMH 071830Z 11021KT 9999 FEW012 BKN020 11/08 Q1023
 
LEIB - Ibiza/Es Codola, Spain
Distance from station: OSO 165km
Actualización: Tue, 07-Feb-2023 7:30pm CET
Few Clouds
Few Clouds
 Viento del calm
Viento: Calma
Temperatura: 10°C
Rocío: 8°C
Humedad: 88%
Barómetro: 1020 hPa
Clouds: Few Clouds
Visibility: 10 km
Cloud details: Few Clouds 671 m
2023/02/07 18:30 LEIB 071830Z 00000KT 9999 FEW022 10/08 Q1020 NOSIG
LEBL - Barcelona Airpor, Spain
Distance from station: NNO 225km
Actualización: Tue, 07-Feb-2023 7:30pm CET
Lluvia débil, Muy nuboso
Lluvia débil, Muy nuboso
 Viento del E
Viento: E 43 km/h, Racha: 61 km/h
Temperatura: 11°C
Rocío: 6°C
Humedad: 72%
Barómetro: 1025 hPa
Resumen: Lluvia débil
Clouds: Muy nuboso
Visibility: 7 km
Cloud details: Few Clouds 396 m
Parcialmente nuboso 762 m
Muy nuboso 1219 m
2023/02/07 18:30 LEBL 071830Z 08023G33KT 7000 -RA FEW013 SCT025 BKN040 11/06 Q1025 NOSIG
 
LEVC - Valencia (civ/Mi, Spain
Distance from station: NO 188km
Actualización: Tue, 07-Feb-2023 7:30pm CET
Parcialmente nuboso
Parcialmente nuboso
 Viento del varies
Viento: varies 4 km/h
Temperatura: 10°C
Rocío: 4°C
Humedad: 67%
Barómetro: 1021 hPa
Clouds: Parcialmente nuboso
Visibility: 10 km
Cloud details: Parcialmente nuboso 1524 m
2023/02/07 18:30 LEVC 071830Z VRB02KT 9999 SCT050 10/04 Q1021 NOSIG
LEGE - Gerona/Costa Bra, Spain
Distance from station: N 276km
Actualización: Tue, 07-Feb-2023 7:30pm CET
Muy nuboso
Muy nuboso
 Viento del NE
Viento: NE 17 km/h
Temperatura: 9°C
Sensación frio: 7°C
Rocío: 7°C
Humedad: 87%
Barómetro: 1028 hPa
Clouds: Muy nuboso
Visibility: 10 km
Cloud details: Few Clouds 1219 m
Muy nuboso 1524 m
2023/02/07 18:30 LEGE 071830Z 04009KT 010V070 9999 FEW040 BKN050 09/07 Q1028
 
LEAL - Alicante/El Alte, Spain
Distance from station: OSO 344km
Actualización: Tue, 07-Feb-2023 7:30pm CET
Few Clouds
Few Clouds
 Viento del NNE
Viento: NNE 13 km/h
Temperatura: 11°C
Rocío: 4°C
Humedad: 62%
Barómetro: 1020 hPa
Clouds: Few Clouds
Visibility: 10 km
Cloud details: Few Clouds 1280 m
2023/02/07 18:30 LEAL 071830Z 02007KT 350V060 9999 FEW042 11/04 Q1020 NOSIG
LEAM - Almeria Airport, Spain
Distance from station: SSO 56km
Actualización: Tue, 07-Feb-2023 7:30pm CET
Parcialmente nuboso
Parcialmente nuboso
 Viento del NE
Viento: NE 15 km/h
Temperatura: 12°C
Rocío: 6°C
Humedad: 67%
Barómetro: 1019 hPa
Clouds: Parcialmente nuboso
Visibility: 10 km
Cloud details: Few Clouds 1219 m
Parcialmente nuboso 2438 m
2023/02/07 18:30 LEAM 071830Z 05008KT 010V070 9999 FEW040 SCT080 12/06 Q1019
 
LEZG - Zaragoza (mil/Ci, Spain
Distance from station: NO 431km
Actualización: Tue, 07-Feb-2023 7:30pm CET
Lluvia débil, Cubierto
Lluvia débil, Cubierto
 Viento del NO
Viento: NO 7 km/h
Temperatura: 5°C
Sensación frio: 3°C
Rocío: 4°C
Humedad: 93%
Barómetro: 1025 hPa
Resumen: Lluvia débil
Clouds: Cubierto
Visibility: 10 km
Cloud details: Few Clouds 305 m
Cubierto 762 m
2023/02/07 18:30 LEZG 071830Z 31004KT 9999 -RA FEW010 OVC025 05/04 Q1025
LEMD - Madrid/Barajas, Spain
Distance from station: ONO 234km
Actualización: Tue, 07-Feb-2023 7:30pm CET
Lluvia débil, Muy nuboso
Lluvia débil, Muy nuboso
 Viento del S
Viento: S 13 km/h
Temperatura: 6°C
Sensación frio: 3°C
Rocío: 3°C
Humedad: 81%
Barómetro: 1019 hPa
Resumen: Lluvia débil
Clouds: Muy nuboso
Visibility: 10 km
Cloud details: Parcialmente nuboso 1036 m
Muy nuboso 1311 m
2023/02/07 18:30 LEMD 071830Z 18007KT 150V210 9999 -RA SCT034 BKN043 06/03 Q1019 NOSIG
 
LEGR - Granada Airport, Spain
Distance from station: OSO 62km
Actualización: Tue, 07-Feb-2023 7:30pm CET
Lluvia débil, Cubierto
Lluvia débil, Cubierto
 Viento del varies
Viento: varies 4 km/h
Temperatura: 8°C
Rocío: 6°C
Humedad: 87%
Barómetro: 1017 hPa
Resumen: Lluvia débil
Clouds: Cubierto
Visibility: 10 km
Cloud details: Few Clouds 457 m
Parcialmente nuboso 1219 m
Cubierto 1829 m
2023/02/07 18:30 LEGR 071830Z VRB02KT 9999 -RA FEW015 SCT040 OVC060 08/06 Q1017
LEMG - Malaga (civ/Mil), Spain
Distance from station: OSO 227km
Actualización: Tue, 07-Feb-2023 7:30pm CET
Lluvia débil, Muy nuboso
Lluvia débil, Muy nuboso
 Viento del O
Viento: O 22 km/h
Temperatura: 9°C
Sensación frio: 6°C
Rocío: 7°C
Humedad: 87%
Barómetro: 1018 hPa
Resumen: Lluvia débil
Clouds: Muy nuboso
Visibility: 7 km
Cloud details: Parcialmente nuboso 1158 m
Muy nuboso 1463 m
2023/02/07 18:30 LEMG 071830Z 27012KT 240V300 7000 -RA SCT038 BKN048 09/07 Q1018 NOSIG
 
LEZL - Sevilla (civ/Mil, Spain
Distance from station: S 318km
Actualización: Tue, 07-Feb-2023 7:30pm CET
Lluvia débil, Parcialmente nuboso
Lluvia débil, Parcialmente nuboso
 Viento del OSO
Viento: OSO 6 km/h
Temperatura: 11°C
Rocío: 9°C
Humedad: 88%
Barómetro: 1017 hPa
Resumen: Lluvia débil
Clouds: Parcialmente nuboso
Visibility: 10 km
Cloud details: Few Clouds 914 m
Parcialmente nuboso 1494 m
2023/02/07 18:30 LEZL 071830Z 25003KT 200V320 9999 -RA FEW030 SCT049 11/09 Q1017 RERA NOSIG
LEVT - Vitoria, Spain
Distance from station: NO 226km
Actualización: Tue, 07-Feb-2023 7:30pm CET
Muy nuboso
Muy nuboso
 Viento del NNE
Viento: NNE 7 km/h
Temperatura: 2°C
Sensación frio: 0°C
Rocío: 1°C
Humedad: 93%
Barómetro: 1024 hPa
Clouds: Muy nuboso
Visibility: 10 km
Cloud details: Few Clouds 549 m
Muy nuboso 2134 m
2023/02/07 18:30 LEVT 071830Z 02004KT 350V050 9999 FEW018 BKN070 02/01 Q1024
 
LEBB - Bilbao/Sondica, Spain
Distance from station: NNO 235km
Actualización: Tue, 07-Feb-2023 7:30pm CET
Few Clouds
Few Clouds
 Viento del calm
Viento: Calma
Temperatura: 6°C
Rocío: 4°C
Humedad: 87%
Barómetro: 1026 hPa
Clouds: Few Clouds
Visibility: 10 km
Cloud details: Few Clouds 1829 m
2023/02/07 18:30 LEBB 071830Z 00000KT 9999 FEW060 06/04 Q1026 NOSIG
LESO - San Sebastian/Fu, Spain
Distance from station: N 231km
Actualización: Tue, 07-Feb-2023 7:30pm CET
Few Clouds
Few Clouds
 Viento del E
Viento: E 6 km/h
Temperatura: 6°C
Rocío: 4°C
Humedad: 87%
Barómetro: 1027 hPa
Clouds: Few Clouds
Visibility: 10 km
Cloud details: Few Clouds 305 m
2023/02/07 18:30 LESO 071830Z 08003KT 030V120 9999 FEW010 06/04 Q1027
 
LEVD - Valladolid(Mil/C, Spain
Distance from station: ONO 239km
Actualización: Tue, 07-Feb-2023 7:30pm CET
Despejado
Despejado
 Viento del E
Viento: E 19 km/h
Temperatura: 3°C
Sensación frio: -2°C
Rocío: -3°C
Humedad: 65%
Barómetro: 1018 hPa
Resumen: Despejado
Visibility: greater than 10 km
2023/02/07 18:30 LEVD 071830Z 09010KT CAVOK 03/M03 Q1018
LESA - Salamanca (civ/M, Spain
Distance from station: ONO 349km
Actualización: Tue, 07-Feb-2023 7:30pm CET
Muy nuboso
Muy nuboso
 Viento del E
Viento: E 11 km/h
Temperatura: 5°C
Sensación frio: 2°C
Rocío: -2°C
Humedad: 61%
Barómetro: 1017 hPa
Clouds: Muy nuboso
Visibility: 10 km
Cloud details: Muy nuboso 1463 m
2023/02/07 18:30 LESA 071830Z 08006KT 9999 BKN048 05/M02 Q1017
 
LEXJ - Santander/Paraya, Spain
Distance from station: NNO 247km
Actualización: Tue, 07-Feb-2023 7:30pm CET
Few Clouds
Few Clouds
 Viento del ESE
Viento: ESE 7 km/h
Temperatura: 5°C
Sensación frio: 3°C
Rocío: 3°C
Humedad: 87%
Barómetro: 1025 hPa
Clouds: Few Clouds
Visibility: 10 km
Cloud details: Few Clouds 610 m
2023/02/07 18:30 LEXJ 071830Z 12004KT 080V150 9999 FEW020 05/03 Q1025
LEAS - Asturias/Aviles, Spain
Distance from station: NO 214km
Actualización: Tue, 07-Feb-2023 7:30pm CET
Muy nuboso
Muy nuboso
 Viento del E
Viento: E 19 km/h
Temperatura: 5°C
Sensación frio: 1°C
Rocío: 0°C
Humedad: 70%
Barómetro: 1024 hPa
Clouds: Muy nuboso
Visibility: 10 km
Cloud details: Few Clouds 1067 m
Parcialmente nuboso 1524 m
Muy nuboso 1981 m
2023/02/07 18:30 LEAS 071830Z 09010KT 9999 FEW035 SCT050 BKN065 05/00 Q1024 TEMPO 3000 RA
 
LECO - La Coruna/Alvedr, Spain
Distance from station: ONO 222km
Actualización: Tue, 07-Feb-2023 7:30pm CET
Parcialmente nuboso
Parcialmente nuboso
 Viento del NE
Viento: NE 15 km/h
Temperatura: 7°C
Sensación frio: 4°C
Rocío: 2°C
Humedad: 71%
Barómetro: 1023 hPa
Clouds: Parcialmente nuboso
Visibility: 10 km
Cloud details: Few Clouds 1067 m
Parcialmente nuboso 1463 m
2023/02/07 18:30 LECO 071830Z 05008KT 010V070 9999 FEW035 SCT048 07/02 Q1023 TEMPO 3000 RA
LEVX - Vigo/Peinador, Spain
Distance from station: O 214km
Actualización: Tue, 07-Feb-2023 7:30pm CET
Despejado
Despejado
 Viento del NNE
Viento: NNE 19 km/h
Temperatura: 9°C
Sensación frio: 6°C
Rocío: -1°C
Humedad: 50%
Barómetro: 1018 hPa
Resumen: Despejado
Visibility: greater than 10 km
2023/02/07 18:30 LEVX 071830Z 03010KT 340V080 CAVOK 09/M01 Q1018 NOSIG